createdAt,value
2024-02-12T00:00:43.288Z,993.15
2024-02-12T00:01:43.330Z,993.18
2024-02-12T00:02:43.372Z,993.19
2024-02-12T00:03:43.377Z,993.19
2024-02-12T00:04:43.654Z,993.18
2024-02-12T00:05:43.439Z,993.20
2024-02-12T00:06:43.621Z,993.21
2024-02-12T00:07:43.432Z,993.19
2024-02-12T00:08:43.608Z,993.17
2024-02-12T00:09:43.487Z,993.17
2024-02-12T00:10:43.512Z,993.17
2024-02-12T00:11:43.836Z,993.14
2024-02-12T00:12:43.566Z,993.17
2024-02-12T00:13:43.588Z,993.20
2024-02-12T00:14:43.663Z,993.18
2024-02-12T00:15:43.647Z,993.24
2024-02-12T00:16:43.666Z,993.22
2024-02-12T00:17:43.797Z,993.26
2024-02-12T00:18:44.084Z,993.29
2024-02-12T00:19:43.768Z,993.28
2024-02-12T00:20:43.789Z,993.32
2024-02-12T00:21:43.795Z,993.34
2024-02-12T00:22:43.837Z,993.37
2024-02-12T00:23:44.057Z,993.39
2024-02-12T00:24:43.892Z,993.39
2024-02-12T00:25:44.152Z,993.41
2024-02-12T00:26:43.947Z,993.42
2024-02-12T00:27:43.958Z,993.42
2024-02-12T00:28:43.982Z,993.41
2024-02-12T00:29:44.036Z,993.40
2024-02-12T00:30:44.030Z,993.39
2024-02-12T00:31:44.076Z,993.37
2024-02-12T00:32:44.620Z,993.37
2024-02-12T00:33:44.352Z,993.37
2024-02-12T00:34:44.127Z,993.39
2024-02-12T00:35:44.205Z,993.37
2024-02-12T00:36:44.186Z,993.39
2024-02-12T00:37:44.210Z,993.39
2024-02-12T00:38:44.235Z,993.42
2024-02-12T00:39:44.563Z,993.41
2024-02-12T00:40:44.316Z,993.46
2024-02-12T00:41:44.329Z,993.43
2024-02-12T00:42:44.360Z,993.48
2024-02-12T00:43:44.440Z,993.48
2024-02-12T00:44:44.398Z,993.43
2024-02-12T00:45:44.416Z,993.50
2024-02-12T00:46:44.693Z,993.53
2024-02-12T00:48:44.600Z,993.58
2024-02-12T00:49:44.521Z,993.59
2024-02-12T00:50:44.630Z,993.56
2024-02-12T00:51:44.599Z,993.58
2024-02-12T00:52:44.600Z,993.62
2024-02-12T00:53:45.045Z,993.60
2024-02-12T00:54:44.652Z,993.58
2024-02-12T00:55:44.676Z,993.60
2024-02-12T00:56:44.705Z,993.62
2024-02-12T00:57:44.729Z,993.64
2024-02-12T00:58:44.753Z,993.68
2024-02-12T00:59:44.779Z,993.70
2024-02-12T01:00:45.134Z,993.69
2024-02-12T01:01:44.841Z,993.68
2024-02-12T01:02:44.857Z,993.72
2024-02-12T01:03:44.926Z,993.69
2024-02-12T01:04:44.914Z,993.73
2024-02-12T01:05:45.085Z,993.75
2024-02-12T01:06:45.147Z,993.76
2024-02-12T01:07:45.292Z,993.76
2024-02-12T01:08:46.416Z,993.80
2024-02-12T01:09:45.043Z,993.81
2024-02-12T01:10:45.070Z,993.79
2024-02-12T01:11:45.302Z,993.82
2024-02-12T01:12:45.190Z,993.83
2024-02-12T01:13:45.218Z,993.85
2024-02-12T01:14:45.475Z,993.88
2024-02-12T01:15:45.255Z,993.86
2024-02-12T01:16:45.224Z,993.86
2024-02-12T01:17:50.888Z,993.91
2024-02-12T01:18:45.396Z,993.90
2024-02-12T01:19:45.345Z,993.92
2024-02-12T01:20:45.595Z,993.92
2024-02-12T01:21:45.363Z,993.98
2024-02-12T01:22:45.378Z,993.94
2024-02-12T01:23:45.423Z,994.00
2024-02-12T01:24:45.433Z,993.98
2024-02-12T01:25:45.459Z,994.02
2024-02-12T01:26:45.732Z,994.07
2024-02-12T01:27:45.513Z,994.12
2024-02-12T01:28:45.536Z,994.08
2024-02-12T01:29:45.559Z,994.12
2024-02-12T01:30:45.583Z,994.18
2024-02-12T01:32:46.024Z,994.16
2024-02-12T01:33:45.725Z,994.18
2024-02-12T01:34:45.718Z,994.19
2024-02-12T01:35:45.831Z,994.15
2024-02-12T01:36:45.738Z,994.15
2024-02-12T01:37:45.765Z,994.15
2024-02-12T01:38:45.838Z,994.19
2024-02-12T01:39:46.185Z,994.20
2024-02-12T01:40:45.863Z,994.23
2024-02-12T01:41:45.866Z,994.28
2024-02-12T01:42:45.901Z,994.27
2024-02-12T01:43:45.939Z,994.32
2024-02-12T01:44:45.962Z,994.31
2024-02-12T01:45:46.024Z,994.27
2024-02-12T01:46:46.331Z,994.33
2024-02-12T01:47:46.272Z,994.36
2024-02-12T01:48:46.238Z,994.35
2024-02-12T01:49:46.082Z,994.35
2024-02-12T01:50:46.149Z,994.40
2024-02-12T01:51:46.177Z,994.38
2024-02-12T01:52:46.176Z,994.43
2024-02-12T01:53:46.516Z,994.40
2024-02-12T01:54:46.204Z,994.43
2024-02-12T01:55:46.254Z,994.41
2024-02-12T01:56:46.271Z,994.42
2024-02-12T01:57:46.381Z,994.43
2024-02-12T01:58:46.305Z,994.43
2024-02-12T01:59:46.377Z,994.44
2024-02-12T02:00:46.694Z,994.44
2024-02-12T02:01:46.394Z,994.48
2024-02-12T02:02:46.565Z,994.53
2024-02-12T02:03:46.631Z,994.51
2024-02-12T02:04:46.474Z,994.49
2024-02-12T02:05:46.641Z,994.51
2024-02-12T02:06:46.513Z,994.53
2024-02-12T02:07:46.796Z,994.58
2024-02-12T02:09:46.598Z,994.57
2024-02-12T02:10:46.613Z,994.56
2024-02-12T02:11:46.663Z,994.60
2024-02-12T02:12:46.666Z,994.59
2024-02-12T02:13:46.695Z,994.59
2024-02-12T02:14:46.996Z,994.63
2024-02-12T02:15:46.749Z,994.63
2024-02-12T02:16:46.767Z,994.67
2024-02-12T02:17:46.933Z,994.69
2024-02-12T02:18:47.085Z,994.69
2024-02-12T02:19:46.846Z,994.71
2024-02-12T02:21:47.198Z,994.69
2024-02-12T02:22:46.930Z,994.67
2024-02-12T02:23:47.117Z,994.72
2024-02-12T02:24:47.032Z,994.75
2024-02-12T02:25:46.998Z,994.73
2024-02-12T02:26:47.024Z,994.74
2024-02-12T02:27:47.081Z,994.77
2024-02-12T02:28:47.399Z,994.80
2024-02-12T02:29:47.112Z,994.79
2024-02-12T02:30:47.132Z,994.76
2024-02-12T02:31:47.153Z,994.78
2024-02-12T02:32:47.362Z,994.81
2024-02-12T02:33:47.468Z,994.83
2024-02-12T02:34:47.232Z,994.81
2024-02-12T02:35:47.528Z,994.82
2024-02-12T02:36:47.280Z,994.83
2024-02-12T02:37:47.343Z,994.81
2024-02-12T02:39:47.354Z,994.85
2024-02-12T02:40:47.387Z,994.86
2024-02-12T02:41:47.473Z,994.82
2024-02-12T02:42:47.743Z,994.80
2024-02-12T02:43:47.489Z,994.82
2024-02-12T02:44:47.486Z,994.84
2024-02-12T02:45:47.509Z,994.88
2024-02-12T02:46:47.537Z,994.86
2024-02-12T02:47:47.810Z,994.85
2024-02-12T02:48:47.674Z,994.84
2024-02-12T02:49:47.865Z,994.86
2024-02-12T02:50:47.682Z,994.83
2024-02-12T02:51:47.665Z,994.85
2024-02-12T02:52:47.690Z,994.85
2024-02-12T02:53:47.715Z,994.84
2024-02-12T02:54:47.742Z,994.84
2024-02-12T02:55:47.763Z,994.84
2024-02-12T02:56:48.045Z,994.86
2024-02-12T02:57:47.830Z,994.84
2024-02-12T02:58:47.856Z,994.81
2024-02-12T02:59:47.905Z,994.80
2024-02-12T03:00:47.982Z,994.74
2024-02-12T03:01:47.918Z,994.79
2024-02-12T03:02:47.952Z,994.79
2024-02-12T03:03:48.297Z,994.82
2024-02-12T03:04:48.007Z,994.80
2024-02-12T03:05:48.071Z,994.86
2024-02-12T03:06:48.050Z,994.84
2024-02-12T03:07:48.072Z,994.84
2024-02-12T03:08:48.098Z,994.83
2024-02-12T03:09:48.155Z,994.88
2024-02-12T03:10:48.443Z,994.81
2024-02-12T03:11:48.178Z,994.81
2024-02-12T03:12:48.202Z,994.84
2024-02-12T03:13:48.226Z,994.85
2024-02-12T03:14:48.250Z,994.88
2024-02-12T03:15:48.310Z,994.92
2024-02-12T03:16:48.554Z,994.90
2024-02-12T03:17:48.676Z,994.94
2024-02-12T03:18:48.498Z,994.97
2024-02-12T03:19:48.379Z,994.95
2024-02-12T03:20:48.405Z,995.01
2024-02-12T03:21:48.442Z,995.02
2024-02-12T03:22:48.810Z,995.01
2024-02-12T03:23:48.506Z,995.08
2024-02-12T03:24:48.517Z,995.10
2024-02-12T03:25:48.535Z,995.11
2024-02-12T03:26:48.560Z,995.11
2024-02-12T03:27:48.590Z,995.14
2024-02-12T03:28:48.909Z,995.14
2024-02-12T03:29:48.637Z,995.16
2024-02-12T03:30:48.661Z,995.22
2024-02-12T03:31:48.711Z,995.27
2024-02-12T03:32:48.795Z,995.25
2024-02-12T03:33:48.803Z,995.27
2024-02-12T03:34:48.794Z,995.27
2024-02-12T03:35:49.037Z,995.28
2024-02-12T03:36:48.817Z,995.29
2024-02-12T03:37:48.836Z,995.31
2024-02-12T03:38:48.865Z,995.34
2024-02-12T03:39:48.895Z,995.30
2024-02-12T03:40:48.922Z,995.29
2024-02-12T03:41:48.942Z,995.33
2024-02-12T03:42:49.266Z,995.34
2024-02-12T03:43:48.993Z,995.32
2024-02-12T03:44:49.021Z,995.34
2024-02-12T03:45:49.048Z,995.34
2024-02-12T03:46:49.071Z,995.35
2024-02-12T03:47:49.389Z,995.42
2024-02-12T03:48:49.243Z,995.42
2024-02-12T03:49:49.447Z,995.41
2024-02-12T03:50:49.175Z,995.48
2024-02-12T03:51:49.313Z,995.51
2024-02-12T03:52:49.225Z,995.52
2024-02-12T03:53:49.253Z,995.53
2024-02-12T03:54:49.290Z,995.55
2024-02-12T03:55:49.457Z,995.54
2024-02-12T03:56:49.633Z,995.53
2024-02-12T03:57:49.349Z,995.57
2024-02-12T03:58:49.375Z,995.60
2024-02-12T03:59:49.401Z,995.67
2024-02-12T04:00:49.476Z,995.65
2024-02-12T04:01:49.458Z,995.69
2024-02-12T04:02:49.474Z,995.69
2024-02-12T04:04:49.886Z,995.71
2024-02-12T04:05:49.691Z,995.70
2024-02-12T04:06:49.583Z,995.77
2024-02-12T04:07:49.609Z,995.78
2024-02-12T04:08:49.636Z,995.81
2024-02-12T04:09:49.655Z,995.85
2024-02-12T04:10:49.687Z,995.82
2024-02-12T04:11:50.007Z,995.82
2024-02-12T04:12:49.747Z,995.90
2024-02-12T04:13:49.759Z,995.87
2024-02-12T04:14:49.839Z,995.89
2024-02-12T04:15:49.810Z,995.90
2024-02-12T04:16:49.892Z,995.92
2024-02-12T04:18:50.224Z,995.94
2024-02-12T04:19:49.912Z,995.97
2024-02-12T04:21:49.987Z,995.99
2024-02-12T04:22:49.992Z,996.01
2024-02-12T04:23:50.113Z,996.03
2024-02-12T04:24:50.040Z,995.98
2024-02-12T04:25:50.364Z,996.00
2024-02-12T04:26:50.098Z,996.03
2024-02-12T04:27:50.113Z,996.04
2024-02-12T04:28:50.479Z,996.04
2024-02-12T04:29:50.165Z,996.06
2024-02-12T04:30:50.195Z,996.05
2024-02-12T04:31:50.222Z,996.05
2024-02-12T04:32:50.683Z,996.05
2024-02-12T04:33:50.399Z,996.02
2024-02-12T04:34:50.294Z,996.06
2024-02-12T04:35:50.315Z,996.10
2024-02-12T04:36:50.370Z,996.08
2024-02-12T04:37:50.540Z,996.08
2024-02-12T04:38:50.411Z,996.10
2024-02-12T04:39:50.723Z,996.15
2024-02-12T04:40:50.486Z,996.15
2024-02-12T04:41:50.486Z,996.15
2024-02-12T04:42:50.490Z,996.14
2024-02-12T04:43:50.660Z,996.13
2024-02-12T04:44:50.542Z,996.19
2024-02-12T04:45:50.568Z,996.16
2024-02-12T04:46:50.845Z,996.16
2024-02-12T04:47:50.785Z,996.17
2024-02-12T04:48:50.714Z,996.18
2024-02-12T04:50:50.714Z,996.19
2024-02-12T04:51:50.762Z,996.21
2024-02-12T04:52:50.752Z,996.24
2024-02-12T04:53:51.092Z,996.26
2024-02-12T04:54:50.802Z,996.27
2024-02-12T04:55:50.829Z,996.28
2024-02-12T04:56:50.847Z,996.32
2024-02-12T04:57:50.886Z,996.31
2024-02-12T04:58:50.911Z,996.32
2024-02-12T04:59:50.931Z,996.38
2024-02-12T05:00:51.239Z,996.36
2024-02-12T05:01:51.031Z,996.39
2024-02-12T05:02:51.003Z,996.42
2024-02-12T05:03:51.047Z,996.42
2024-02-12T05:04:51.056Z,996.40
2024-02-12T05:05:51.238Z,996.45
2024-02-12T05:06:51.132Z,996.38
2024-02-12T05:07:51.402Z,996.38
2024-02-12T05:08:51.161Z,996.36
2024-02-12T05:09:51.220Z,996.36
2024-02-12T05:11:53.137Z,996.40
2024-02-12T05:12:51.256Z,996.39
2024-02-12T05:13:51.278Z,996.35
2024-02-12T05:14:51.613Z,996.40
2024-02-12T05:15:51.371Z,996.41
2024-02-12T05:16:51.368Z,996.37
2024-02-12T05:17:51.445Z,996.43
2024-02-12T05:18:51.563Z,996.48
2024-02-12T05:19:51.436Z,996.43
2024-02-12T05:20:51.457Z,996.45
2024-02-12T05:21:51.797Z,996.48
2024-02-12T05:22:51.517Z,996.46
2024-02-12T05:23:51.555Z,996.48
2024-02-12T05:24:51.559Z,996.51
2024-02-12T05:25:51.610Z,996.50
2024-02-12T05:26:51.629Z,996.52
2024-02-12T05:27:51.647Z,996.57
2024-02-12T05:28:51.987Z,996.53
2024-02-12T05:29:51.687Z,996.60
2024-02-12T05:30:51.729Z,996.59
2024-02-12T05:31:51.760Z,996.57
2024-02-12T05:32:51.849Z,996.53
2024-02-12T05:33:51.879Z,996.53
2024-02-12T05:34:54.421Z,996.58
2024-02-12T05:35:52.135Z,996.56
2024-02-12T05:36:51.869Z,996.55
2024-02-12T05:37:51.888Z,996.55
2024-02-12T05:38:51.935Z,996.56
2024-02-12T05:39:51.943Z,996.54
2024-02-12T05:40:51.972Z,996.52
2024-02-12T05:41:52.012Z,996.54
2024-02-12T05:42:52.318Z,996.55
2024-02-12T05:43:52.043Z,996.57
2024-02-12T05:44:52.075Z,996.61
2024-02-12T05:45:52.091Z,996.55
2024-02-12T05:46:52.121Z,996.59
2024-02-12T05:47:52.289Z,996.59
2024-02-12T05:48:52.461Z,996.55
2024-02-12T05:49:52.209Z,996.56
2024-02-12T05:50:52.232Z,996.56
2024-02-12T05:51:52.253Z,996.53
2024-02-12T05:52:52.293Z,996.58
2024-02-12T05:53:52.315Z,996.54
2024-02-12T05:54:52.656Z,996.55
2024-02-12T05:55:52.353Z,996.59
2024-02-12T05:56:52.476Z,996.56
2024-02-12T05:57:52.428Z,996.58
2024-02-12T05:58:52.424Z,996.58
2024-02-12T05:59:52.449Z,996.56
2024-02-12T06:00:52.801Z,996.61
2024-02-12T06:01:52.552Z,996.66
2024-02-12T06:02:52.560Z,996.65
2024-02-12T06:03:52.610Z,996.67
2024-02-12T06:04:52.673Z,996.69
2024-02-12T06:05:52.833Z,996.76
2024-02-12T06:06:52.815Z,996.72
2024-02-12T06:07:53.036Z,996.77
2024-02-12T06:08:52.777Z,996.84
2024-02-12T06:09:52.712Z,996.85
2024-02-12T06:10:52.798Z,996.86
2024-02-12T06:11:52.759Z,996.88
2024-02-12T06:12:52.788Z,996.91
2024-02-12T06:14:53.157Z,996.92
2024-02-12T06:15:52.870Z,996.96
2024-02-12T06:16:52.889Z,996.95
2024-02-12T06:17:52.945Z,996.98
2024-02-12T06:18:52.979Z,996.97
2024-02-12T06:19:52.973Z,996.97
2024-02-12T06:20:53.018Z,996.99
2024-02-12T06:22:53.173Z,996.98
2024-02-12T06:23:53.088Z,996.97
2024-02-12T06:24:53.102Z,996.97
2024-02-12T06:25:53.252Z,996.99
2024-02-12T06:26:53.211Z,996.99
2024-02-12T06:27:53.169Z,996.99
2024-02-12T06:28:53.614Z,997.06
2024-02-12T06:29:53.217Z,997.04
2024-02-12T06:30:53.269Z,997.07
2024-02-12T06:31:53.311Z,997.10
2024-02-12T06:32:53.347Z,997.12
2024-02-12T06:33:53.421Z,997.14
2024-02-12T06:34:53.358Z,997.11
2024-02-12T06:35:53.643Z,997.17
2024-02-12T06:36:53.402Z,997.17
2024-02-12T06:37:53.474Z,997.15
2024-02-12T06:38:53.489Z,997.22
2024-02-12T06:39:53.473Z,997.20
2024-02-12T06:40:53.702Z,997.22
2024-02-12T06:41:53.579Z,997.26
2024-02-12T06:42:53.846Z,997.25
2024-02-12T06:43:53.650Z,997.29
2024-02-12T06:44:53.613Z,997.34
2024-02-12T06:45:53.636Z,997.30
2024-02-12T06:46:53.710Z,997.33
2024-02-12T06:47:53.713Z,997.32
2024-02-12T06:49:54.023Z,997.36
2024-02-12T06:50:53.759Z,997.35
2024-02-12T06:51:53.788Z,997.32
2024-02-12T06:52:54.061Z,997.30
2024-02-12T06:53:53.829Z,997.30
2024-02-12T06:54:53.856Z,997.31
2024-02-12T06:55:54.014Z,997.33
2024-02-12T06:56:54.213Z,997.36
2024-02-12T06:57:53.928Z,997.37
2024-02-12T06:58:53.962Z,997.39
2024-02-12T06:59:53.988Z,997.40
2024-02-12T07:00:54.138Z,997.44
2024-02-12T07:01:54.097Z,997.39
2024-02-12T07:02:54.091Z,997.44
2024-02-12T07:03:54.373Z,997.43
2024-02-12T07:04:54.188Z,997.45
2024-02-12T07:05:54.268Z,997.51
2024-02-12T07:06:54.159Z,997.48
2024-02-12T07:07:54.193Z,997.52
2024-02-12T07:08:54.204Z,997.55
2024-02-12T07:09:54.234Z,997.57
2024-02-12T07:10:54.603Z,997.55
2024-02-12T07:11:54.290Z,997.57
2024-02-12T07:12:54.314Z,997.61
2024-02-12T07:13:54.350Z,997.61
2024-02-12T07:14:54.354Z,997.67
2024-02-12T07:15:54.434Z,997.63
2024-02-12T07:16:54.553Z,997.69
2024-02-12T07:17:54.766Z,997.71
2024-02-12T07:18:54.548Z,997.74
2024-02-12T07:20:54.515Z,997.78
2024-02-12T07:21:54.541Z,997.77
2024-02-12T07:22:54.652Z,997.80
2024-02-12T07:23:54.594Z,997.80
2024-02-12T07:24:54.861Z,997.82
2024-02-12T07:25:54.773Z,997.86
2024-02-12T07:26:54.752Z,997.85
2024-02-12T07:27:54.692Z,997.89
2024-02-12T07:28:54.728Z,997.91
2024-02-12T07:29:54.744Z,997.89
2024-02-12T07:30:54.781Z,997.91
2024-02-12T07:31:55.070Z,997.98
2024-02-12T07:32:54.858Z,997.97
2024-02-12T07:33:54.967Z,997.94
2024-02-12T07:34:54.937Z,997.98
2024-02-12T07:35:54.894Z,997.97
2024-02-12T07:36:54.920Z,998.00
2024-02-12T07:37:54.983Z,997.97
2024-02-12T07:38:55.222Z,998.00
2024-02-12T07:39:54.997Z,998.01
2024-02-12T07:40:55.127Z,998.04
2024-02-12T07:41:55.051Z,998.06
2024-02-12T07:42:55.069Z,998.04
2024-02-12T07:43:55.142Z,998.01
2024-02-12T07:44:55.125Z,998.12
2024-02-12T07:45:55.445Z,998.07
2024-02-12T07:46:55.256Z,998.08
2024-02-12T07:47:55.303Z,998.11
2024-02-12T07:48:55.369Z,998.13
2024-02-12T07:49:55.274Z,998.13
2024-02-12T07:51:55.623Z,998.20
2024-02-12T07:52:55.356Z,998.23
2024-02-12T07:53:55.455Z,998.19
2024-02-12T07:54:55.390Z,998.23
2024-02-12T07:55:55.427Z,998.25
2024-02-12T07:56:55.433Z,998.25
2024-02-12T07:57:55.724Z,998.22
2024-02-12T07:58:55.497Z,998.27
2024-02-12T07:59:55.613Z,998.26
2024-02-12T08:00:55.617Z,998.28
2024-02-12T08:01:56.144Z,998.32
2024-02-12T08:02:55.582Z,998.30
2024-02-12T08:03:55.888Z,998.31
2024-02-12T08:04:55.701Z,998.32
2024-02-12T08:05:55.665Z,998.37
2024-02-12T08:08:02.849Z,998.39
2024-02-12T08:08:55.778Z,998.41
2024-02-12T08:09:55.784Z,998.41
2024-02-12T08:10:56.180Z,998.42
2024-02-12T08:11:55.834Z,998.48
2024-02-12T08:12:55.902Z,998.46
2024-02-12T08:13:55.928Z,998.48
2024-02-12T08:14:55.897Z,998.50
2024-02-12T08:15:55.935Z,998.47
2024-02-12T08:16:55.984Z,998.48
2024-02-12T08:17:56.141Z,998.49
2024-02-12T08:18:56.111Z,998.50
2024-02-12T08:19:56.186Z,998.51
2024-02-12T08:20:56.154Z,998.54
2024-02-12T08:22:56.203Z,998.59
2024-02-12T08:23:56.450Z,998.58
2024-02-12T08:24:56.150Z,998.62
2024-02-12T08:25:56.219Z,998.67
2024-02-12T08:26:56.199Z,998.69
2024-02-12T08:27:56.231Z,998.70
2024-02-12T08:28:56.294Z,998.72
2024-02-12T08:29:56.284Z,998.75
2024-02-12T08:30:59.643Z,998.79
2024-02-12T08:31:56.344Z,998.79
2024-02-12T08:32:56.572Z,998.79
2024-02-12T08:33:56.487Z,998.82
2024-02-12T08:34:56.466Z,998.80
2024-02-12T08:35:56.482Z,998.83
2024-02-12T08:36:56.463Z,998.81
2024-02-12T08:37:56.907Z,998.83
2024-02-12T08:39:56.562Z,998.91
2024-02-12T08:40:56.604Z,998.89
2024-02-12T08:41:56.586Z,998.89
2024-02-12T08:42:56.611Z,998.93
2024-02-12T08:43:56.795Z,998.92
2024-02-12T08:44:59.939Z,998.94
2024-02-12T08:45:56.784Z,998.95
2024-02-12T08:46:56.724Z,999.00
2024-02-12T08:47:56.836Z,999.00
2024-02-12T08:48:56.804Z,998.99
2024-02-12T08:49:56.823Z,998.99
2024-02-12T08:50:56.826Z,999.01
2024-02-12T08:51:57.146Z,999.06
2024-02-12T08:54:00.052Z,999.07
2024-02-12T08:54:56.936Z,999.14
2024-02-12T08:55:56.984Z,999.12
2024-02-12T08:56:56.979Z,999.14
2024-02-12T08:57:57.009Z,999.13
2024-02-12T08:58:57.305Z,999.19
2024-02-12T08:59:57.047Z,999.19
2024-02-12T09:00:57.116Z,999.19
2024-02-12T09:02:57.153Z,999.27
2024-02-12T09:03:57.173Z,999.30
2024-02-12T09:04:57.247Z,999.32
2024-02-12T09:05:57.530Z,999.31
2024-02-12T09:06:57.337Z,999.33
2024-02-12T09:07:57.332Z,999.34
2024-02-12T09:08:57.283Z,999.34
2024-02-12T09:09:57.308Z,999.35
2024-02-12T09:10:57.372Z,999.32
2024-02-12T09:11:57.378Z,999.35
2024-02-12T09:13:57.765Z,999.39
2024-02-12T09:14:57.454Z,999.41
2024-02-12T09:15:57.758Z,999.37
2024-02-12T09:16:57.517Z,999.37
2024-02-12T09:17:57.553Z,999.42
2024-02-12T09:18:57.615Z,999.44
2024-02-12T09:19:57.582Z,999.43
2024-02-12T09:20:57.905Z,999.48
2024-02-12T09:21:57.613Z,999.44
2024-02-12T09:22:57.666Z,999.45
2024-02-12T09:23:57.679Z,999.48
2024-02-12T09:24:57.687Z,999.54
2024-02-12T09:25:57.759Z,999.58
2024-02-12T09:26:57.745Z,999.57
2024-02-12T09:27:58.253Z,999.63
2024-02-12T09:28:57.917Z,999.63
2024-02-12T09:29:57.837Z,999.66
2024-02-12T09:33:58.288Z,999.76
2024-02-12T09:35:57.978Z,999.78
2024-02-12T09:36:58.000Z,999.81
2024-02-12T09:37:59.790Z,999.84
2024-02-12T09:38:58.110Z,999.77
2024-02-12T09:39:58.332Z,999.80
2024-02-12T09:40:58.289Z,999.79
2024-02-12T09:41:58.125Z,999.78
2024-02-12T09:42:58.233Z,999.80
2024-02-12T09:43:58.225Z,999.83
2024-02-12T09:44:58.233Z,999.83
2024-02-12T09:45:58.228Z,999.84
2024-02-12T09:46:58.301Z,999.82
2024-02-12T09:47:58.418Z,999.86
2024-02-12T09:48:58.354Z,999.82
2024-02-12T09:49:58.391Z,999.83
2024-02-12T09:50:58.356Z,999.91
2024-02-12T09:52:58.772Z,999.83
2024-02-12T09:53:58.456Z,999.84
2024-02-12T09:54:58.472Z,999.85
2024-02-12T09:55:58.579Z,999.82
2024-02-12T09:57:58.545Z,999.90
2024-02-12T09:58:58.611Z,999.94
2024-02-12T09:59:58.934Z,999.89
2024-02-12T10:00:58.693Z,999.94
2024-02-12T10:01:58.755Z,999.95
2024-02-12T10:02:58.707Z,999.90
2024-02-12T10:03:58.705Z,999.96
2024-02-12T10:04:58.816Z,999.93
2024-02-12T10:05:58.810Z,999.99
2024-02-12T10:06:59.086Z,999.95
2024-02-12T10:07:58.852Z,999.98
2024-02-12T10:08:58.826Z,999.98
2024-02-12T10:09:58.860Z,1000.00
2024-02-12T10:10:58.918Z,1000.05
2024-02-12T10:11:59.011Z,1000.01
2024-02-12T10:12:59.029Z,1000.01
2024-02-12T10:13:59.287Z,1000.03
2024-02-12T10:14:58.985Z,1000.06
2024-02-12T10:15:59.026Z,1000.03
2024-02-12T10:16:59.052Z,1000.05
2024-02-12T10:17:59.137Z,1000.08
2024-02-12T10:18:59.109Z,1000.01
2024-02-12T10:19:59.147Z,999.98
2024-02-12T10:20:59.443Z,1000.03
2024-02-12T10:21:59.166Z,1000.07
2024-02-12T10:22:59.275Z,1000.03
2024-02-12T10:23:59.233Z,1000.10
2024-02-12T10:24:59.258Z,1000.12
2024-02-12T10:25:59.298Z,1000.12
2024-02-12T10:26:59.299Z,1000.16
2024-02-12T10:27:59.327Z,1000.18
2024-02-12T10:28:59.492Z,1000.22
2024-02-12T10:29:59.425Z,1000.19
2024-02-12T10:30:59.404Z,1000.25
2024-02-12T10:31:59.493Z,1000.23
2024-02-12T10:32:59.586Z,1000.24
2024-02-12T10:33:59.571Z,1000.22
2024-02-12T10:34:59.522Z,1000.29
2024-02-12T10:35:59.539Z,1000.24
2024-02-12T10:36:59.549Z,1000.26
2024-02-12T10:37:59.635Z,1000.25
2024-02-12T10:38:59.633Z,1000.24
2024-02-12T10:39:59.924Z,1000.22
2024-02-12T10:40:59.679Z,1000.20
2024-02-12T10:41:59.778Z,1000.22
2024-02-12T10:42:59.723Z,1000.22
2024-02-12T10:43:59.773Z,1000.24
2024-02-12T10:44:59.759Z,1000.25
2024-02-12T10:45:59.790Z,1000.27
2024-02-12T10:47:00.091Z,1000.34
2024-02-12T10:48:00.009Z,1000.32
2024-02-12T10:48:59.897Z,1000.27
2024-02-12T10:49:59.917Z,1000.32
2024-02-12T10:50:59.908Z,1000.31
2024-02-12T10:51:59.943Z,1000.37
2024-02-12T10:52:59.999Z,1000.36
2024-02-12T10:53:59.987Z,1000.34
2024-02-12T10:55:00.020Z,1000.30
2024-02-12T10:56:00.158Z,1000.40
2024-02-12T10:57:00.198Z,1000.41
2024-02-12T10:58:00.113Z,1000.44
2024-02-12T10:59:00.399Z,1000.47
2024-02-12T11:00:00.216Z,1000.47
2024-02-12T11:01:03.720Z,1000.53
2024-02-12T11:02:00.354Z,1000.51
2024-02-12T11:03:00.218Z,1000.53
2024-02-12T11:04:00.401Z,1000.55
2024-02-12T11:05:00.303Z,1000.55
2024-02-12T11:06:00.415Z,1000.57
2024-02-12T11:07:00.320Z,1000.56
2024-02-12T11:08:00.398Z,1000.60
2024-02-12T11:09:00.449Z,1000.60
2024-02-12T11:10:00.394Z,1000.61
2024-02-12T11:11:00.819Z,1000.56
2024-02-12T11:12:00.469Z,1000.56
2024-02-12T11:13:00.475Z,1000.61
2024-02-12T11:14:00.616Z,1000.60
2024-02-12T11:15:00.541Z,1000.61
2024-02-12T11:16:00.549Z,1000.63
2024-02-12T11:17:00.590Z,1000.67
2024-02-12T11:18:00.932Z,1000.66
2024-02-12T11:19:00.870Z,1000.64
2024-02-12T11:20:00.923Z,1000.65
2024-02-12T11:21:00.902Z,1000.68
2024-02-12T11:22:00.717Z,1000.69
2024-02-12T11:23:00.827Z,1000.67
2024-02-12T11:24:00.774Z,1000.69
2024-02-12T11:25:09.229Z,1000.71
2024-02-12T11:26:00.925Z,1000.70
2024-02-12T11:27:01.017Z,1000.71
2024-02-12T11:28:00.900Z,1000.70
2024-02-12T11:29:00.897Z,1000.71
2024-02-12T11:30:00.912Z,1000.70
2024-02-12T11:31:00.982Z,1000.71
2024-02-12T11:32:00.991Z,1000.70
2024-02-12T11:33:01.265Z,1000.69
2024-02-12T11:35:01.068Z,1000.73
2024-02-12T11:36:01.095Z,1000.74
2024-02-12T11:37:01.422Z,1000.80
2024-02-12T11:39:01.152Z,1000.77
2024-02-12T11:40:01.291Z,1000.82
2024-02-12T11:41:01.208Z,1000.80
2024-02-12T11:43:01.621Z,1000.85
2024-02-12T11:45:01.332Z,1000.78
2024-02-12T11:46:01.323Z,1000.78
2024-02-12T11:47:01.581Z,1000.76
2024-02-12T11:48:01.776Z,1000.85
2024-02-12T11:49:01.507Z,1000.94
2024-02-12T11:50:01.564Z,1000.91
2024-02-12T11:51:01.453Z,1000.91
2024-02-12T11:52:01.553Z,1000.82
2024-02-12T11:53:01.538Z,1000.89
2024-02-12T11:54:01.560Z,1000.86
2024-02-12T11:55:01.817Z,1000.83
2024-02-12T11:56:01.681Z,1000.78
2024-02-12T11:57:01.607Z,1000.77
2024-02-12T11:58:01.644Z,1000.76
2024-02-12T11:59:04.234Z,1000.77
2024-02-12T12:00:01.745Z,1000.80
2024-02-12T12:01:01.768Z,1000.85
2024-02-12T12:02:02.099Z,1000.82
2024-02-12T12:03:01.765Z,1000.90
2024-02-12T12:04:01.849Z,1000.89
2024-02-12T12:06:01.943Z,1000.96
2024-02-12T12:07:01.877Z,1000.93
2024-02-12T12:08:01.946Z,1000.97
2024-02-12T12:09:02.173Z,1000.94
2024-02-12T12:10:01.953Z,1000.98
2024-02-12T12:11:01.997Z,1000.99
2024-02-12T12:12:02.020Z,1000.98
2024-02-12T12:13:02.316Z,1001.02
2024-02-12T12:14:02.247Z,1000.99
2024-02-12T12:16:02.393Z,1001.06
2024-02-12T12:17:28.685Z,1001.03
2024-02-12T12:18:02.239Z,1001.04
2024-02-12T12:19:02.307Z,1001.03
2024-02-12T12:20:02.320Z,1001.01
2024-02-12T12:21:02.251Z,1001.02
2024-02-12T12:22:02.245Z,1001.03
2024-02-12T12:23:02.538Z,1001.04
2024-02-12T12:24:02.387Z,1001.09
2024-02-12T12:25:02.329Z,1001.06
2024-02-12T12:26:02.375Z,1001.06
2024-02-12T12:27:02.380Z,1001.06
2024-02-12T12:28:02.403Z,1001.07
2024-02-12T12:29:04.104Z,1001.05
2024-02-12T12:30:02.677Z,1001.07
2024-02-12T12:31:02.474Z,1001.09
2024-02-12T12:32:02.622Z,1001.10
2024-02-12T12:33:02.848Z,1001.12
2024-02-12T12:34:02.574Z,1001.09
2024-02-12T12:35:02.765Z,1001.17
2024-02-12T12:36:02.912Z,1001.15
2024-02-12T12:37:02.634Z,1001.19
2024-02-12T12:38:02.677Z,1001.13
2024-02-12T12:39:02.674Z,1001.18
2024-02-12T12:40:02.725Z,1001.17
2024-02-12T12:41:02.782Z,1001.13
2024-02-12T12:42:02.750Z,1001.11
2024-02-12T12:43:03.036Z,1001.14
2024-02-12T12:44:02.830Z,1001.13
2024-02-12T12:46:02.878Z,1001.18
2024-02-12T12:47:03.152Z,1001.12
2024-02-12T12:48:03.054Z,1001.18
2024-02-12T12:49:03.344Z,1001.17
2024-02-12T12:50:03.023Z,1001.14
2024-02-12T12:51:03.269Z,1001.16
2024-02-12T12:52:03.005Z,1001.20
2024-02-12T12:55:03.406Z,1001.20
2024-02-12T12:56:03.240Z,1001.19
2024-02-12T12:57:07.335Z,1001.20
2024-02-12T12:58:03.165Z,1001.22
2024-02-12T12:59:03.232Z,1001.26
2024-02-12T13:00:03.220Z,1001.24